sensor_id;sensor_type;location;lat;lon;timestamp;P1;durP1;ratioP1;P2;durP2;ratioP2
9821;SDS011;4950;46.042;14.472;2024-01-30T00:01:51;59.53;;;33.73;;
9821;SDS011;4950;46.042;14.472;2024-01-30T00:04:17;61.97;;;34.93;;
9821;SDS011;4950;46.042;14.472;2024-01-30T00:06:46;70.13;;;37.43;;
9821;SDS011;4950;46.042;14.472;2024-01-30T00:09:12;67.07;;;36.33;;
9821;SDS011;4950;46.042;14.472;2024-01-30T00:11:40;69.30;;;37.90;;
9821;SDS011;4950;46.042;14.472;2024-01-30T00:14:07;70.17;;;36.07;;
9821;SDS011;4950;46.042;14.472;2024-01-30T00:16:33;73.93;;;40.33;;
9821;SDS011;4950;46.042;14.472;2024-01-30T00:19:00;85.27;;;37.53;;
9821;SDS011;4950;46.042;14.472;2024-01-30T00:21:27;66.77;;;36.60;;
9821;SDS011;4950;46.042;14.472;2024-01-30T00:23:55;66.80;;;36.50;;
9821;SDS011;4950;46.042;14.472;2024-01-30T00:26:22;67.73;;;34.97;;
9821;SDS011;4950;46.042;14.472;2024-01-30T00:28:49;54.77;;;31.07;;
9821;SDS011;4950;46.042;14.472;2024-01-30T00:31:16;60.80;;;31.33;;
9821;SDS011;4950;46.042;14.472;2024-01-30T00:33:42;50.93;;;30.00;;
9821;SDS011;4950;46.042;14.472;2024-01-30T00:36:09;58.43;;;29.27;;
9821;SDS011;4950;46.042;14.472;2024-01-30T00:38:36;51.27;;;28.93;;
9821;SDS011;4950;46.042;14.472;2024-01-30T00:41:05;47.67;;;27.37;;
9821;SDS011;4950;46.042;14.472;2024-01-30T00:43:31;53.07;;;28.63;;
9821;SDS011;4950;46.042;14.472;2024-01-30T00:45:58;47.60;;;29.47;;
9821;SDS011;4950;46.042;14.472;2024-01-30T00:48:25;48.50;;;28.73;;
9821;SDS011;4950;46.042;14.472;2024-01-30T00:50:51;52.07;;;27.17;;
9821;SDS011;4950;46.042;14.472;2024-01-30T00:53:18;49.80;;;28.37;;
9821;SDS011;4950;46.042;14.472;2024-01-30T00:55:45;50.03;;;27.53;;
9821;SDS011;4950;46.042;14.472;2024-01-30T00:58:14;48.27;;;25.43;;
9821;SDS011;4950;46.042;14.472;2024-01-30T01:00:40;44.33;;;26.33;;
9821;SDS011;4950;46.042;14.472;2024-01-30T01:03:07;48.63;;;26.43;;
9821;SDS011;4950;46.042;14.472;2024-01-30T01:05:34;52.50;;;28.20;;
9821;SDS011;4950;46.042;14.472;2024-01-30T01:08:00;54.47;;;29.90;;
9821;SDS011;4950;46.042;14.472;2024-01-30T01:10:27;61.87;;;33.90;;
9821;SDS011;4950;46.042;14.472;2024-01-30T01:12:54;65.13;;;34.03;;
9821;SDS011;4950;46.042;14.472;2024-01-30T01:15:22;64.23;;;35.03;;
9821;SDS011;4950;46.042;14.472;2024-01-30T01:17:49;66.23;;;34.63;;
9821;SDS011;4950;46.042;14.472;2024-01-30T01:20:15;63.60;;;33.47;;
9821;SDS011;4950;46.042;14.472;2024-01-30T01:22:42;65.80;;;34.83;;
9821;SDS011;4950;46.042;14.472;2024-01-30T01:25:09;67.90;;;36.83;;
9821;SDS011;4950;46.042;14.472;2024-01-30T01:27:36;62.57;;;34.33;;
9821;SDS011;4950;46.042;14.472;2024-01-30T01:30:06;63.70;;;34.07;;
9821;SDS011;4950;46.042;14.472;2024-01-30T01:32:36;65.88;;;34.60;;
9821;SDS011;4950;46.042;14.472;2024-01-30T01:35:03;61.73;;;33.37;;
9821;SDS011;4950;46.042;14.472;2024-01-30T01:37:31;59.83;;;32.73;;
9821;SDS011;4950;46.042;14.472;2024-01-30T01:39:58;59.10;;;34.03;;
9821;SDS011;4950;46.042;14.472;2024-01-30T01:42:25;59.53;;;34.20;;
9821;SDS011;4950;46.042;14.472;2024-01-30T01:44:51;59.87;;;31.97;;
9821;SDS011;4950;46.042;14.472;2024-01-30T01:47:18;51.77;;;31.23;;
9821;SDS011;4950;46.042;14.472;2024-01-30T01:49:46;57.20;;;30.10;;
9821;SDS011;4950;46.042;14.472;2024-01-30T01:52:13;64.83;;;33.37;;
9821;SDS011;4950;46.042;14.472;2024-01-30T01:54:40;57.13;;;32.67;;
9821;SDS011;4950;46.042;14.472;2024-01-30T01:57:07;61.33;;;32.87;;
9821;SDS011;4950;46.042;14.472;2024-01-30T01:59:34;59.23;;;33.47;;
9821;SDS011;4950;46.042;14.472;2024-01-30T02:02:01;66.20;;;33.87;;
9821;SDS011;4950;46.042;14.472;2024-01-30T02:04:29;55.93;;;31.80;;
9821;SDS011;4950;46.042;14.472;2024-01-30T02:06:57;58.83;;;32.70;;
9821;SDS011;4950;46.042;14.472;2024-01-30T02:09:24;58.27;;;30.83;;
9821;SDS011;4950;46.042;14.472;2024-01-30T02:11:51;48.93;;;29.40;;
9821;SDS011;4950;46.042;14.472;2024-01-30T02:14:18;56.23;;;32.07;;
9821;SDS011;4950;46.042;14.472;2024-01-30T02:16:45;55.80;;;32.53;;
9821;SDS011;4950;46.042;14.472;2024-01-30T02:19:11;51.87;;;30.93;;
9821;SDS011;4950;46.042;14.472;2024-01-30T02:21:39;59.43;;;32.90;;
9821;SDS011;4950;46.042;14.472;2024-01-30T02:24:06;52.43;;;30.73;;
9821;SDS011;4950;46.042;14.472;2024-01-30T02:26:33;55.13;;;31.10;;
9821;SDS011;4950;46.042;14.472;2024-01-30T02:29:00;53.63;;;30.73;;
9821;SDS011;4950;46.042;14.472;2024-01-30T02:31:26;59.73;;;32.10;;
9821;SDS011;4950;46.042;14.472;2024-01-30T02:33:53;53.27;;;30.80;;
9821;SDS011;4950;46.042;14.472;2024-01-30T02:36:20;54.57;;;30.73;;
9821;SDS011;4950;46.042;14.472;2024-01-30T02:38:48;48.23;;;28.20;;
9821;SDS011;4950;46.042;14.472;2024-01-30T02:41:14;53.33;;;30.13;;
9821;SDS011;4950;46.042;14.472;2024-01-30T02:43:41;49.97;;;29.37;;
9821;SDS011;4950;46.042;14.472;2024-01-30T02:46:08;51.77;;;29.37;;
9821;SDS011;4950;46.042;14.472;2024-01-30T02:48:35;51.33;;;29.53;;
9821;SDS011;4950;46.042;14.472;2024-01-30T02:51:03;54.80;;;30.27;;
9821;SDS011;4950;46.042;14.472;2024-01-30T02:53:30;49.80;;;28.50;;
9821;SDS011;4950;46.042;14.472;2024-01-30T02:55:58;48.27;;;28.20;;
9821;SDS011;4950;46.042;14.472;2024-01-30T02:58:25;48.93;;;29.10;;
9821;SDS011;4950;46.042;14.472;2024-01-30T03:00:52;49.67;;;28.83;;
9821;SDS011;4950;46.042;14.472;2024-01-30T03:03:18;50.10;;;29.67;;
9821;SDS011;4950;46.042;14.472;2024-01-30T03:05:45;44.67;;;26.50;;
9821;SDS011;4950;46.042;14.472;2024-01-30T03:08:12;49.07;;;26.70;;
9821;SDS011;4950;46.042;14.472;2024-01-30T03:10:38;48.07;;;27.70;;
9821;SDS011;4950;46.042;14.472;2024-01-30T03:13:06;50.70;;;28.13;;
9821;SDS011;4950;46.042;14.472;2024-01-30T03:15:33;47.63;;;27.73;;
9821;SDS011;4950;46.042;14.472;2024-01-30T03:18:00;48.10;;;28.53;;
9821;SDS011;4950;46.042;14.472;2024-01-30T03:20:26;50.50;;;27.13;;
9821;SDS011;4950;46.042;14.472;2024-01-30T03:22:53;44.53;;;26.43;;
9821;SDS011;4950;46.042;14.472;2024-01-30T03:25:21;51.00;;;29.03;;
9821;SDS011;4950;46.042;14.472;2024-01-30T03:27:48;50.40;;;29.20;;
9821;SDS011;4950;46.042;14.472;2024-01-30T03:30:16;48.47;;;26.47;;
9821;SDS011;4950;46.042;14.472;2024-01-30T03:32:42;47.70;;;27.07;;
9821;SDS011;4950;46.042;14.472;2024-01-30T03:35:09;49.17;;;26.90;;
9821;SDS011;4950;46.042;14.472;2024-01-30T03:37:36;43.07;;;25.70;;
9821;SDS011;4950;46.042;14.472;2024-01-30T03:40:03;47.23;;;27.40;;
9821;SDS011;4950;46.042;14.472;2024-01-30T03:42:30;45.20;;;25.60;;
9821;SDS011;4950;46.042;14.472;2024-01-30T03:44:57;45.67;;;24.07;;
9821;SDS011;4950;46.042;14.472;2024-01-30T03:47:25;48.67;;;24.87;;
9821;SDS011;4950;46.042;14.472;2024-01-30T03:49:52;45.47;;;23.80;;
9821;SDS011;4950;46.042;14.472;2024-01-30T03:52:18;44.57;;;24.07;;
9821;SDS011;4950;46.042;14.472;2024-01-30T03:54:45;58.07;;;25.57;;
9821;SDS011;4950;46.042;14.472;2024-01-30T03:57:12;42.67;;;24.23;;
9821;SDS011;4950;46.042;14.472;2024-01-30T03:59:41;44.10;;;23.67;;
9821;SDS011;4950;46.042;14.472;2024-01-30T04:02:08;41.92;;;23.45;;
9821;SDS011;4950;46.042;14.472;2024-01-30T04:04:37;41.87;;;23.03;;
9821;SDS011;4950;46.042;14.472;2024-01-30T04:07:04;47.17;;;23.93;;
9821;SDS011;4950;46.042;14.472;2024-01-30T04:09:30;45.70;;;25.03;;
9821;SDS011;4950;46.042;14.472;2024-01-30T04:11:57;42.67;;;23.10;;
9821;SDS011;4950;46.042;14.472;2024-01-30T04:14:24;54.47;;;24.37;;
9821;SDS011;4950;46.042;14.472;2024-01-30T04:16:51;51.73;;;28.23;;
9821;SDS011;4950;46.042;14.472;2024-01-30T04:19:18;55.37;;;27.20;;
9821;SDS011;4950;46.042;14.472;2024-01-30T04:21:46;48.00;;;27.10;;
9821;SDS011;4950;46.042;14.472;2024-01-30T04:24:12;45.07;;;25.27;;
9821;SDS011;4950;46.042;14.472;2024-01-30T04:26:42;39.55;;;23.27;;
9821;SDS011;4950;46.042;14.472;2024-01-30T04:29:09;45.70;;;23.53;;
9821;SDS011;4950;46.042;14.472;2024-01-30T04:31:35;44.17;;;25.03;;
9821;SDS011;4950;46.042;14.472;2024-01-30T04:34:02;50.70;;;27.87;;
9821;SDS011;4950;46.042;14.472;2024-01-30T04:36:29;54.20;;;26.97;;
9821;SDS011;4950;46.042;14.472;2024-01-30T04:38:57;49.37;;;26.97;;
9821;SDS011;4950;46.042;14.472;2024-01-30T04:41:24;45.73;;;25.17;;
9821;SDS011;4950;46.042;14.472;2024-01-30T04:43:51;46.37;;;26.33;;
9821;SDS011;4950;46.042;14.472;2024-01-30T04:46:17;53.63;;;29.20;;
9821;SDS011;4950;46.042;14.472;2024-01-30T04:48:44;50.40;;;29.83;;
9821;SDS011;4950;46.042;14.472;2024-01-30T04:51:11;50.57;;;29.43;;
9821;SDS011;4950;46.042;14.472;2024-01-30T04:53:38;49.97;;;27.80;;
9821;SDS011;4950;46.042;14.472;2024-01-30T04:56:06;49.10;;;28.77;;
9821;SDS011;4950;46.042;14.472;2024-01-30T04:58:33;46.90;;;26.93;;
9821;SDS011;4950;46.042;14.472;2024-01-30T05:01:00;49.17;;;27.77;;
9821;SDS011;4950;46.042;14.472;2024-01-30T05:03:27;51.43;;;27.73;;
9821;SDS011;4950;46.042;14.472;2024-01-30T05:05:53;49.50;;;28.97;;
9821;SDS011;4950;46.042;14.472;2024-01-30T05:08:20;50.63;;;29.00;;
9821;SDS011;4950;46.042;14.472;2024-01-30T05:10:47;56.27;;;32.10;;
9821;SDS011;4950;46.042;14.472;2024-01-30T05:13:15;51.40;;;31.73;;
9821;SDS011;4950;46.042;14.472;2024-01-30T05:15:41;56.17;;;32.27;;
9821;SDS011;4950;46.042;14.472;2024-01-30T05:18:08;53.03;;;32.23;;
9821;SDS011;4950;46.042;14.472;2024-01-30T05:20:35;60.13;;;34.47;;
9821;SDS011;4950;46.042;14.472;2024-01-30T05:23:01;52.73;;;32.50;;
9821;SDS011;4950;46.042;14.472;2024-01-30T05:25:28;62.10;;;33.60;;
9821;SDS011;4950;46.042;14.472;2024-01-30T05:27:55;52.40;;;31.67;;
9821;SDS011;4950;46.042;14.472;2024-01-30T05:30:23;52.77;;;32.50;;
9821;SDS011;4950;46.042;14.472;2024-01-30T05:32:50;55.87;;;32.70;;
9821;SDS011;4950;46.042;14.472;2024-01-30T05:35:17;53.43;;;33.37;;
9821;SDS011;4950;46.042;14.472;2024-01-30T05:37:46;52.60;;;33.43;;
9821;SDS011;4950;46.042;14.472;2024-01-30T05:40:14;54.37;;;32.87;;
9821;SDS011;4950;46.042;14.472;2024-01-30T05:42:41;52.30;;;32.77;;
9821;SDS011;4950;46.042;14.472;2024-01-30T05:45:08;52.57;;;32.83;;
9821;SDS011;4950;46.042;14.472;2024-01-30T05:47:36;48.17;;;30.47;;
9821;SDS011;4950;46.042;14.472;2024-01-30T05:50:03;51.63;;;31.03;;
9821;SDS011;4950;46.042;14.472;2024-01-30T05:52:30;51.30;;;32.23;;
9821;SDS011;4950;46.042;14.472;2024-01-30T05:54:57;50.47;;;32.77;;
9821;SDS011;4950;46.042;14.472;2024-01-30T05:57:23;56.83;;;34.47;;
9821;SDS011;4950;46.042;14.472;2024-01-30T05:59:50;54.33;;;32.87;;
9821;SDS011;4950;46.042;14.472;2024-01-30T06:02:17;48.37;;;31.77;;
9821;SDS011;4950;46.042;14.472;2024-01-30T06:04:45;53.07;;;32.53;;
9821;SDS011;4950;46.042;14.472;2024-01-30T06:07:12;53.13;;;34.23;;
9821;SDS011;4950;46.042;14.472;2024-01-30T06:09:42;48.60;;;31.60;;
9821;SDS011;4950;46.042;14.472;2024-01-30T06:12:09;52.40;;;33.50;;
9821;SDS011;4950;46.042;14.472;2024-01-30T06:14:37;54.90;;;33.93;;
9821;SDS011;4950;46.042;14.472;2024-01-30T06:17:04;57.53;;;32.20;;
9821;SDS011;4950;46.042;14.472;2024-01-30T06:19:31;50.37;;;32.10;;
9821;SDS011;4950;46.042;14.472;2024-01-30T06:24:50;57.87;;;33.20;;
9821;SDS011;4950;46.042;14.472;2024-01-30T06:27:17;50.47;;;31.80;;
9821;SDS011;4950;46.042;14.472;2024-01-30T06:29:43;50.27;;;30.87;;
9821;SDS011;4950;46.042;14.472;2024-01-30T06:32:10;52.93;;;33.70;;
9821;SDS011;4950;46.042;14.472;2024-01-30T06:34:37;54.87;;;33.00;;
9821;SDS011;4950;46.042;14.472;2024-01-30T06:37:05;54.00;;;31.87;;
9821;SDS011;4950;46.042;14.472;2024-01-30T06:39:33;56.00;;;33.90;;
9821;SDS011;4950;46.042;14.472;2024-01-30T06:41:59;56.33;;;32.63;;
9821;SDS011;4950;46.042;14.472;2024-01-30T06:44:26;54.47;;;31.87;;
9821;SDS011;4950;46.042;14.472;2024-01-30T06:46:53;52.10;;;32.67;;
9821;SDS011;4950;46.042;14.472;2024-01-30T06:49:20;52.20;;;31.87;;
9821;SDS011;4950;46.042;14.472;2024-01-30T06:51:47;47.63;;;31.10;;
9821;SDS011;4950;46.042;14.472;2024-01-30T06:54:14;53.60;;;31.90;;
9821;SDS011;4950;46.042;14.472;2024-01-30T06:56:42;51.57;;;31.40;;
9821;SDS011;4950;46.042;14.472;2024-01-30T06:59:11;48.30;;;31.87;;
9821;SDS011;4950;46.042;14.472;2024-01-30T07:01:38;49.00;;;30.83;;
9821;SDS011;4950;46.042;14.472;2024-01-30T07:04:05;46.77;;;30.73;;
9821;SDS011;4950;46.042;14.472;2024-01-30T07:06:32;51.77;;;32.53;;
9821;SDS011;4950;46.042;14.472;2024-01-30T07:08:59;54.90;;;33.90;;
9821;SDS011;4950;46.042;14.472;2024-01-30T07:11:25;54.63;;;33.67;;
9821;SDS011;4950;46.042;14.472;2024-01-30T07:13:55;53.23;;;34.40;;
9821;SDS011;4950;46.042;14.472;2024-01-30T07:16:22;50.03;;;31.90;;
9821;SDS011;4950;46.042;14.472;2024-01-30T07:18:48;41.20;;;28.23;;
9821;SDS011;4950;46.042;14.472;2024-01-30T07:21:15;43.50;;;28.27;;
9821;SDS011;4950;46.042;14.472;2024-01-30T07:23:42;42.10;;;29.13;;
9821;SDS011;4950;46.042;14.472;2024-01-30T07:26:09;43.10;;;29.87;;
9821;SDS011;4950;46.042;14.472;2024-01-30T07:28:35;50.00;;;31.33;;
9821;SDS011;4950;46.042;14.472;2024-01-30T07:31:03;46.23;;;30.90;;
9821;SDS011;4950;46.042;14.472;2024-01-30T07:33:31;51.22;;;32.17;;
9821;SDS011;4950;46.042;14.472;2024-01-30T07:35:58;50.33;;;30.23;;
9821;SDS011;4950;46.042;14.472;2024-01-30T07:38:25;48.03;;;30.53;;
9821;SDS011;4950;46.042;14.472;2024-01-30T07:40:51;51.23;;;30.93;;
9821;SDS011;4950;46.042;14.472;2024-01-30T07:43:18;52.70;;;31.63;;
9821;SDS011;4950;46.042;14.472;2024-01-30T07:45:46;51.03;;;31.80;;
9821;SDS011;4950;46.042;14.472;2024-01-30T07:48:14;51.90;;;33.00;;
9821;SDS011;4950;46.042;14.472;2024-01-30T07:50:41;57.30;;;36.03;;
9821;SDS011;4950;46.042;14.472;2024-01-30T07:53:16;59.22;;;39.22;;
9821;SDS011;4950;46.042;14.472;2024-01-30T07:55:42;61.27;;;36.90;;
9821;SDS011;4950;46.042;14.472;2024-01-30T07:58:11;57.72;;;35.78;;
9821;SDS011;4950;46.042;14.472;2024-01-30T08:00:38;55.43;;;35.53;;
9821;SDS011;4950;46.042;14.472;2024-01-30T08:03:05;58.97;;;35.63;;
9821;SDS011;4950;46.042;14.472;2024-01-30T08:05:32;57.50;;;36.10;;
9821;SDS011;4950;46.042;14.472;2024-01-30T08:07:58;56.80;;;35.37;;
9821;SDS011;4950;46.042;14.472;2024-01-30T08:10:26;57.63;;;35.40;;
9821;SDS011;4950;46.042;14.472;2024-01-30T08:12:53;54.63;;;34.37;;
9821;SDS011;4950;46.042;14.472;2024-01-30T08:15:20;53.77;;;34.07;;
9821;SDS011;4950;46.042;14.472;2024-01-30T08:17:49;52.63;;;34.38;;
9821;SDS011;4950;46.042;14.472;2024-01-30T08:20:20;52.77;;;33.50;;
9821;SDS011;4950;46.042;14.472;2024-01-30T08:22:47;53.07;;;35.30;;
9821;SDS011;4950;46.042;14.472;2024-01-30T08:25:14;46.53;;;31.93;;
9821;SDS011;4950;46.042;14.472;2024-01-30T08:27:42;50.33;;;33.90;;
9821;SDS011;4950;46.042;14.472;2024-01-30T08:30:10;50.67;;;31.43;;
9821;SDS011;4950;46.042;14.472;2024-01-30T08:32:37;46.27;;;32.03;;
9821;SDS011;4950;46.042;14.472;2024-01-30T08:35:04;47.93;;;32.33;;
9821;SDS011;4950;46.042;14.472;2024-01-30T08:37:31;47.97;;;31.70;;
9821;SDS011;4950;46.042;14.472;2024-01-30T08:39:58;48.53;;;32.00;;
9821;SDS011;4950;46.042;14.472;2024-01-30T08:42:25;41.70;;;29.57;;
9821;SDS011;4950;46.042;14.472;2024-01-30T08:44:53;41.80;;;28.87;;
9821;SDS011;4950;46.042;14.472;2024-01-30T08:47:21;39.55;;;29.27;;
9821;SDS011;4950;46.042;14.472;2024-01-30T08:49:47;43.17;;;28.40;;
9821;SDS011;4950;46.042;14.472;2024-01-30T08:52:14;44.13;;;29.77;;
9821;SDS011;4950;46.042;14.472;2024-01-30T08:54:41;45.80;;;29.87;;
9821;SDS011;4950;46.042;14.472;2024-01-30T08:57:08;39.20;;;28.37;;
9821;SDS011;4950;46.042;14.472;2024-01-30T08:59:35;44.47;;;30.13;;
9821;SDS011;4950;46.042;14.472;2024-01-30T09:02:03;44.83;;;31.13;;
9821;SDS011;4950;46.042;14.472;2024-01-30T09:04:30;49.37;;;32.00;;
9821;SDS011;4950;46.042;14.472;2024-01-30T09:06:57;48.93;;;33.27;;
9821;SDS011;4950;46.042;14.472;2024-01-30T09:09:23;43.97;;;30.23;;
9821;SDS011;4950;46.042;14.472;2024-01-30T09:11:50;48.10;;;31.87;;
9821;SDS011;4950;46.042;14.472;2024-01-30T09:14:17;49.70;;;31.90;;
9821;SDS011;4950;46.042;14.472;2024-01-30T09:16:44;50.83;;;33.30;;
9821;SDS011;4950;46.042;14.472;2024-01-30T09:19:12;52.93;;;34.27;;
9821;SDS011;4950;46.042;14.472;2024-01-30T09:21:39;51.03;;;33.77;;
9821;SDS011;4950;46.042;14.472;2024-01-30T09:24:06;57.80;;;35.63;;
9821;SDS011;4950;46.042;14.472;2024-01-30T09:26:34;56.57;;;35.97;;
9821;SDS011;4950;46.042;14.472;2024-01-30T09:29:01;56.77;;;37.00;;
9821;SDS011;4950;46.042;14.472;2024-01-30T09:31:28;56.70;;;35.57;;
9821;SDS011;4950;46.042;14.472;2024-01-30T09:33:54;56.83;;;39.20;;
9821;SDS011;4950;46.042;14.472;2024-01-30T09:36:22;57.33;;;37.63;;
9821;SDS011;4950;46.042;14.472;2024-01-30T09:38:48;58.33;;;38.77;;
9821;SDS011;4950;46.042;14.472;2024-01-30T09:41:17;59.83;;;38.40;;
9821;SDS011;4950;46.042;14.472;2024-01-30T09:43:46;53.60;;;36.73;;
9821;SDS011;4950;46.042;14.472;2024-01-30T09:46:14;60.42;;;39.58;;
9821;SDS011;4950;46.042;14.472;2024-01-30T09:48:43;54.28;;;37.63;;
9821;SDS011;4950;46.042;14.472;2024-01-30T09:51:12;57.55;;;36.80;;
9821;SDS011;4950;46.042;14.472;2024-01-30T09:53:43;51.90;;;35.53;;
9821;SDS011;4950;46.042;14.472;2024-01-30T09:56:10;53.63;;;35.65;;
9821;SDS011;4950;46.042;14.472;2024-01-30T09:58:38;58.30;;;35.53;;
9821;SDS011;4950;46.042;14.472;2024-01-30T10:01:05;50.57;;;35.10;;
9821;SDS011;4950;46.042;14.472;2024-01-30T10:03:32;65.60;;;39.10;;
9821;SDS011;4950;46.042;14.472;2024-01-30T10:05:59;60.13;;;40.83;;
9821;SDS011;4950;46.042;14.472;2024-01-30T10:08:27;61.20;;;38.80;;
9821;SDS011;4950;46.042;14.472;2024-01-30T10:10:56;57.17;;;35.97;;
9821;SDS011;4950;46.042;14.472;2024-01-30T10:13:23;50.25;;;34.38;;
9821;SDS011;4950;46.042;14.472;2024-01-30T10:15:49;46.17;;;31.85;;
9821;SDS011;4950;46.042;14.472;2024-01-30T10:18:17;51.38;;;35.03;;
9821;SDS011;4950;46.042;14.472;2024-01-30T10:20:44;51.92;;;35.35;;
9821;SDS011;4950;46.042;14.472;2024-01-30T10:23:12;48.05;;;31.92;;
9821;SDS011;4950;46.042;14.472;2024-01-30T10:25:39;47.75;;;31.35;;
9821;SDS011;4950;46.042;14.472;2024-01-30T10:28:08;53.25;;;32.60;;
9821;SDS011;4950;46.042;14.472;2024-01-30T10:30:35;53.70;;;32.73;;
9821;SDS011;4950;46.042;14.472;2024-01-30T10:33:02;48.95;;;31.27;;
9821;SDS011;4950;46.042;14.472;2024-01-30T10:35:29;52.40;;;31.00;;
9821;SDS011;4950;46.042;14.472;2024-01-30T10:37:56;52.33;;;31.95;;
9821;SDS011;4950;46.042;14.472;2024-01-30T10:40:24;52.95;;;32.95;;
9821;SDS011;4950;46.042;14.472;2024-01-30T10:42:55;46.42;;;31.23;;
9821;SDS011;4950;46.042;14.472;2024-01-30T10:45:24;49.70;;;31.60;;
9821;SDS011;4950;46.042;14.472;2024-01-30T10:47:55;47.20;;;31.55;;
9821;SDS011;4950;46.042;14.472;2024-01-30T10:50:23;44.95;;;30.08;;
9821;SDS011;4950;46.042;14.472;2024-01-30T10:52:51;47.90;;;29.73;;
9821;SDS011;4950;46.042;14.472;2024-01-30T10:55:19;47.58;;;29.40;;
9821;SDS011;4950;46.042;14.472;2024-01-30T10:57:48;51.30;;;29.73;;
9821;SDS011;4950;46.042;14.472;2024-01-30T11:00:15;47.50;;;28.55;;
9821;SDS011;4950;46.042;14.472;2024-01-30T11:02:48;46.40;;;27.92;;
9821;SDS011;4950;46.042;14.472;2024-01-30T11:05:23;49.95;;;31.60;;
9821;SDS011;4950;46.042;14.472;2024-01-30T11:07:50;47.60;;;31.15;;
9821;SDS011;4950;46.042;14.472;2024-01-30T11:10:16;44.90;;;30.10;;
9821;SDS011;4950;46.042;14.472;2024-01-30T11:12:45;42.28;;;29.42;;
9821;SDS011;4950;46.042;14.472;2024-01-30T11:15:13;47.95;;;31.95;;
9821;SDS011;4950;46.042;14.472;2024-01-30T11:17:41;44.20;;;28.58;;
9821;SDS011;4950;46.042;14.472;2024-01-30T11:20:12;42.83;;;29.05;;
9821;SDS011;4950;46.042;14.472;2024-01-30T11:22:42;46.42;;;29.30;;
9821;SDS011;4950;46.042;14.472;2024-01-30T11:25:13;38.67;;;27.27;;
9821;SDS011;4950;46.042;14.472;2024-01-30T11:27:41;39.75;;;25.10;;
9821;SDS011;4950;46.042;14.472;2024-01-30T11:30:09;40.67;;;25.73;;
9821;SDS011;4950;46.042;14.472;2024-01-30T11:32:36;36.53;;;23.38;;
9821;SDS011;4950;46.042;14.472;2024-01-30T11:35:03;39.42;;;25.70;;
9821;SDS011;4950;46.042;14.472;2024-01-30T11:37:33;41.33;;;26.17;;
9821;SDS011;4950;46.042;14.472;2024-01-30T11:40:03;42.60;;;24.77;;
9821;SDS011;4950;46.042;14.472;2024-01-30T11:42:31;40.55;;;25.48;;
9821;SDS011;4950;46.042;14.472;2024-01-30T11:44:59;41.15;;;25.52;;
9821;SDS011;4950;46.042;14.472;2024-01-30T11:47:27;37.75;;;23.52;;
9821;SDS011;4950;46.042;14.472;2024-01-30T11:49:54;35.85;;;22.92;;
9821;SDS011;4950;46.042;14.472;2024-01-30T11:52:21;39.75;;;24.60;;
9821;SDS011;4950;46.042;14.472;2024-01-30T11:54:49;40.45;;;24.55;;
9821;SDS011;4950;46.042;14.472;2024-01-30T11:57:16;35.90;;;25.20;;
9821;SDS011;4950;46.042;14.472;2024-01-30T11:59:43;37.63;;;24.63;;
9821;SDS011;4950;46.042;14.472;2024-01-30T12:02:14;42.03;;;24.13;;
9821;SDS011;4950;46.042;14.472;2024-01-30T12:04:42;47.67;;;23.75;;
9821;SDS011;4950;46.042;14.472;2024-01-30T12:07:08;40.10;;;23.58;;
9821;SDS011;4950;46.042;14.472;2024-01-30T12:09:35;42.03;;;24.10;;
9821;SDS011;4950;46.042;14.472;2024-01-30T12:12:04;34.80;;;21.55;;
9821;SDS011;4950;46.042;14.472;2024-01-30T12:14:37;41.22;;;22.48;;
9821;SDS011;4950;46.042;14.472;2024-01-30T12:17:04;37.42;;;23.10;;
9821;SDS011;4950;46.042;14.472;2024-01-30T12:19:32;36.67;;;23.60;;
9821;SDS011;4950;46.042;14.472;2024-01-30T12:21:59;39.22;;;24.60;;
9821;SDS011;4950;46.042;14.472;2024-01-30T12:24:26;47.30;;;23.80;;
9821;SDS011;4950;46.042;14.472;2024-01-30T12:26:56;33.13;;;22.23;;
9821;SDS011;4950;46.042;14.472;2024-01-30T12:29:24;30.77;;;21.90;;
9821;SDS011;4950;46.042;14.472;2024-01-30T12:31:52;35.97;;;20.35;;
9821;SDS011;4950;46.042;14.472;2024-01-30T12:34:21;43.28;;;20.98;;
9821;SDS011;4950;46.042;14.472;2024-01-30T12:36:48;35.90;;;19.55;;
9821;SDS011;4950;46.042;14.472;2024-01-30T12:39:15;29.83;;;19.17;;
9821;SDS011;4950;46.042;14.472;2024-01-30T12:41:42;31.90;;;19.65;;
9821;SDS011;4950;46.042;14.472;2024-01-30T12:44:09;30.30;;;19.38;;
9821;SDS011;4950;46.042;14.472;2024-01-30T12:46:37;43.13;;;21.48;;
9821;SDS011;4950;46.042;14.472;2024-01-30T12:49:03;36.67;;;22.40;;
9821;SDS011;4950;46.042;14.472;2024-01-30T12:51:30;47.65;;;22.83;;
9821;SDS011;4950;46.042;14.472;2024-01-30T12:54:04;30.60;;;19.05;;
9821;SDS011;4950;46.042;14.472;2024-01-30T12:56:31;31.10;;;19.90;;
9821;SDS011;4950;46.042;14.472;2024-01-30T12:58:58;30.33;;;18.10;;
9821;SDS011;4950;46.042;14.472;2024-01-30T13:01:25;30.20;;;17.48;;
9821;SDS011;4950;46.042;14.472;2024-01-30T13:03:53;34.25;;;17.02;;
9821;SDS011;4950;46.042;14.472;2024-01-30T13:06:22;29.90;;;18.52;;
9821;SDS011;4950;46.042;14.472;2024-01-30T13:08:49;37.10;;;16.98;;
9821;SDS011;4950;46.042;14.472;2024-01-30T13:11:18;25.90;;;15.25;;
9821;SDS011;4950;46.042;14.472;2024-01-30T13:13:45;25.55;;;14.02;;
9821;SDS011;4950;46.042;14.472;2024-01-30T13:16:12;20.42;;;13.05;;
9821;SDS011;4950;46.042;14.472;2024-01-30T13:18:39;28.20;;;14.13;;
9821;SDS011;4950;46.042;14.472;2024-01-30T13:21:07;27.38;;;14.70;;
9821;SDS011;4950;46.042;14.472;2024-01-30T13:23:34;24.95;;;15.10;;
9821;SDS011;4950;46.042;14.472;2024-01-30T13:26:01;23.63;;;13.38;;
9821;SDS011;4950;46.042;14.472;2024-01-30T13:28:27;20.77;;;12.15;;
9821;SDS011;4950;46.042;14.472;2024-01-30T13:30:54;20.90;;;12.80;;
9821;SDS011;4950;46.042;14.472;2024-01-30T13:33:21;24.60;;;12.13;;
9821;SDS011;4950;46.042;14.472;2024-01-30T13:35:47;24.65;;;12.98;;
9821;SDS011;4950;46.042;14.472;2024-01-30T13:38:16;26.73;;;14.35;;
9821;SDS011;4950;46.042;14.472;2024-01-30T13:40:43;18.08;;;11.93;;
9821;SDS011;4950;46.042;14.472;2024-01-30T13:43:09;21.08;;;12.52;;
9821;SDS011;4950;46.042;14.472;2024-01-30T13:45:36;21.67;;;12.90;;
9821;SDS011;4950;46.042;14.472;2024-01-30T13:48:03;24.15;;;12.95;;
9821;SDS011;4950;46.042;14.472;2024-01-30T13:50:30;24.70;;;13.68;;
9821;SDS011;4950;46.042;14.472;2024-01-30T13:52:58;22.17;;;12.40;;
9821;SDS011;4950;46.042;14.472;2024-01-30T13:55:26;20.70;;;12.23;;
9821;SDS011;4950;46.042;14.472;2024-01-30T13:57:53;27.05;;;12.98;;
9821;SDS011;4950;46.042;14.472;2024-01-30T14:00:20;21.48;;;13.18;;
9821;SDS011;4950;46.042;14.472;2024-01-30T14:02:48;22.80;;;12.80;;
9821;SDS011;4950;46.042;14.472;2024-01-30T14:05:14;20.60;;;12.05;;
9821;SDS011;4950;46.042;14.472;2024-01-30T14:07:41;21.35;;;12.20;;
9821;SDS011;4950;46.042;14.472;2024-01-30T14:10:09;22.95;;;12.05;;
9821;SDS011;4950;46.042;14.472;2024-01-30T14:12:38;30.23;;;12.48;;
9821;SDS011;4950;46.042;14.472;2024-01-30T14:15:06;22.53;;;12.17;;
9821;SDS011;4950;46.042;14.472;2024-01-30T14:20:01;19.20;;;10.75;;
9821;SDS011;4950;46.042;14.472;2024-01-30T14:22:29;17.85;;;11.30;;
9821;SDS011;4950;46.042;14.472;2024-01-30T14:24:56;21.98;;;12.55;;
9821;SDS011;4950;46.042;14.472;2024-01-30T14:27:23;19.80;;;10.48;;
9821;SDS011;4950;46.042;14.472;2024-01-30T14:29:51;23.70;;;11.18;;
9821;SDS011;4950;46.042;14.472;2024-01-30T14:32:18;18.30;;;11.38;;
9821;SDS011;4950;46.042;14.472;2024-01-30T14:34:44;21.90;;;12.05;;
9821;SDS011;4950;46.042;14.472;2024-01-30T14:37:12;22.33;;;11.70;;
9821;SDS011;4950;46.042;14.472;2024-01-30T14:39:39;21.92;;;12.25;;